Time;durP1;ratioP1;P1;durP2;ratioP2;P2;SDS_P1;SDS_P2;PMS_P1;PMS_P2;Temp;Humidity;BMP_temperature;BMP_pressure;BME280_temperature;BME280_humidity;BME280_pressure;Samples;Min_cycle;Max_cycle;Signal;HPM_P1;HPM_P2
2022/03/08 00:02:14;;;;;;;21.25;11.90;;;;;;;;;;5015433;28;20108;-83
2022/03/08 00:04:40;;;;;;;23.73;12.63;;;;;;;;;;5015826;28;20504;-83
2022/03/08 00:07:06;;;;;;;21.42;12.27;;;;;;;;;;5015440;28;20014;-83
2022/03/08 00:09:33;;;;;;;20.30;12.52;;;;;;;;;;5016356;28;20084;-81
2022/03/08 00:11:59;;;;;;;19.63;11.63;;;;;;;;;;5015927;28;20022;-82
2022/03/08 00:14:25;;;;;;;23.52;12.30;;;;;;;;;;5015185;28;20072;-82
2022/03/08 00:16:51;;;;;;;22.70;12.18;;;;;;;;;;5014891;28;20080;-82
2022/03/08 00:19:17;;;;;;;21.08;11.88;;;;;;;;;;5015925;28;20038;-82
2022/03/08 00:21:44;;;;;;;23.55;12.40;;;;;;;;;;5017856;28;20030;-83
2022/03/08 00:24:10;;;;;;;22.83;12.45;;;;;;;;;;5012647;28;20041;-86
2022/03/08 00:26:36;;;;;;;21.52;11.85;;;;;;;;;;4996308;28;20027;-84
2022/03/08 00:29:02;;;;;;;24.75;13.00;;;;;;;;;;4997477;28;20054;-84
2022/03/08 00:31:28;;;;;;;27.95;12.50;;;;;;;;;;4997806;28;20087;-81
2022/03/08 00:33:54;;;;;;;21.17;12.80;;;;;;;;;;5009904;28;20073;-82
2022/03/08 00:36:21;;;;;;;24.02;12.20;;;;;;;;;;5004093;28;20022;-84
2022/03/08 00:38:47;;;;;;;25.70;12.43;;;;;;;;;;5017427;28;20033;-82
2022/03/08 00:41:13;;;;;;;21.90;11.88;;;;;;;;;;5011765;28;20058;-82
2022/03/08 00:43:39;;;;;;;23.55;13.02;;;;;;;;;;4997079;28;20053;-82
2022/03/08 00:46:05;;;;;;;17.85;11.55;;;;;;;;;;4998561;28;20117;-82
2022/03/08 00:48:31;;;;;;;24.80;13.27;;;;;;;;;;5015907;28;20409;-83
2022/03/08 00:50:57;;;;;;;20.42;12.35;;;;;;;;;;5016486;28;20083;-81
2022/03/08 00:53:23;;;;;;;22.23;11.95;;;;;;;;;;5017083;28;20394;-81
2022/03/08 00:55:49;;;;;;;22.75;11.80;;;;;;;;;;5016430;28;20049;-81
2022/03/08 00:58:15;;;;;;;21.95;12.02;;;;;;;;;;5016483;28;20049;-81
2022/03/08 01:00:41;;;;;;;20.20;12.18;;;;;;;;;;5015871;28;20022;-82
2022/03/08 01:03:07;;;;;;;20.40;11.90;;;;;;;;;;5016119;28;20057;-82
2022/03/08 01:05:34;;;;;;;23.15;12.82;;;;;;;;;;5015911;28;20034;-82
2022/03/08 01:08:01;;;;;;;25.13;12.50;;;;;;;;;;5015629;28;20109;-85
2022/03/08 01:10:27;;;;;;;28.80;12.65;;;;;;;;;;5015516;28;20037;-81
2022/03/08 01:12:54;;;;;;;20.42;11.77;;;;;;;;;;5023020;28;20034;-81
2022/03/08 01:15:21;;;;;;;23.15;13.75;;;;;;;;;;5014869;28;20110;-82
2022/03/08 01:17:47;;;;;;;20.88;11.80;;;;;;;;;;5013425;28;20018;-82
2022/03/08 01:20:14;;;;;;;22.25;12.13;;;;;;;;;;5014758;28;20482;-81
2022/03/08 01:22:40;;;;;;;19.08;11.75;;;;;;;;;;5014605;28;20026;-82
2022/03/08 01:25:07;;;;;;;20.95;12.65;;;;;;;;;;5014545;28;20161;-83
2022/03/08 01:27:33;;;;;;;22.27;12.00;;;;;;;;;;5015118;28;20025;-82
2022/03/08 01:29:59;;;;;;;23.27;12.77;;;;;;;;;;5016043;28;20026;-81
2022/03/08 01:32:25;;;;;;;21.45;12.48;;;;;;;;;;5014232;28;20041;-84
2022/03/08 01:34:51;;;;;;;24.23;11.98;;;;;;;;;;5015091;28;20097;-82
2022/03/08 01:37:17;;;;;;;23.58;12.18;;;;;;;;;;5015456;28;20044;-83
2022/03/08 01:39:43;;;;;;;22.75;12.15;;;;;;;;;;5016114;28;20072;-82
2022/03/08 01:42:14;;;;;;;19.80;11.93;;;;;;;;;;5016392;28;20030;-80
2022/03/08 01:44:41;;;;;;;23.80;12.18;;;;;;;;;;5014794;28;20030;-83
2022/03/08 01:47:07;;;;;;;22.70;12.00;;;;;;;;;;5010948;28;20113;-80
2022/03/08 01:49:33;;;;;;;22.52;12.23;;;;;;;;;;4995375;28;20056;-80
2022/03/08 01:51:59;;;;;;;24.90;12.18;;;;;;;;;;4996046;28;20034;-81
2022/03/08 01:54:25;;;;;;;20.15;11.15;;;;;;;;;;4996513;28;20049;-82
2022/03/08 01:56:51;;;;;;;23.35;13.10;;;;;;;;;;4996136;28;20058;-82
2022/03/08 01:59:17;;;;;;;21.85;11.68;;;;;;;;;;5003577;28;20026;-83
2022/03/08 02:01:43;;;;;;;24.30;12.10;;;;;;;;;;5004867;28;20372;-81
2022/03/08 02:04:09;;;;;;;25.23;11.80;;;;;;;;;;5035275;28;20032;-81
2022/03/08 02:06:35;;;;;;;22.02;11.00;;;;;;;;;;5037021;28;20444;-82
2022/03/08 02:09:01;;;;;;;20.30;11.90;;;;;;;;;;5036892;28;20033;-81
2022/03/08 02:11:27;;;;;;;20.92;11.95;;;;;;;;;;5035646;28;20021;-82
2022/03/08 02:13:55;;;;;;;18.83;10.90;;;;;;;;;;5017941;28;20080;-82
2022/03/08 02:16:21;;;;;;;19.75;10.93;;;;;;;;;;5016826;28;20101;-80
2022/03/08 02:18:47;;;;;;;21.88;11.50;;;;;;;;;;5016903;28;20094;-82
2022/03/08 02:21:13;;;;;;;23.50;10.75;;;;;;;;;;5015597;28;20118;-82
2022/03/08 02:23:40;;;;;;;22.17;11.35;;;;;;;;;;5014271;28;20025;-83
2022/03/08 02:26:06;;;;;;;24.70;11.82;;;;;;;;;;5016430;28;20061;-81
2022/03/08 02:28:32;;;;;;;19.70;10.85;;;;;;;;;;5019715;28;20026;-83
2022/03/08 02:30:58;;;;;;;17.95;10.85;;;;;;;;;;5019752;28;20045;-82
2022/03/08 02:33:27;;;;;;;21.95;11.65;;;;;;;;;;5021312;28;20095;-81
2022/03/08 02:35:53;;;;;;;21.77;11.00;;;;;;;;;;5018878;28;20066;-82
2022/03/08 02:38:19;;;;;;;20.17;11.05;;;;;;;;;;5017095;28;20029;-82
2022/03/08 02:40:45;;;;;;;22.52;10.98;;;;;;;;;;5018085;28;20030;-83
2022/03/08 02:43:12;;;;;;;22.38;10.60;;;;;;;;;;5018923;28;20485;-82
2022/03/08 02:45:38;;;;;;;19.92;10.68;;;;;;;;;;5019570;28;20025;-80
2022/03/08 02:48:05;;;;;;;18.67;10.57;;;;;;;;;;5035054;28;20030;-84
2022/03/08 02:50:31;;;;;;;18.88;10.45;;;;;;;;;;5019281;28;20052;-83
2022/03/08 02:52:58;;;;;;;21.90;10.10;;;;;;;;;;5019833;28;20022;-82
2022/03/08 02:55:25;;;;;;;19.63;10.60;;;;;;;;;;5018440;28;20097;-82
2022/03/08 02:57:52;;;;;;;18.63;9.85;;;;;;;;;;5017823;28;20114;-82
2022/03/08 03:00:19;;;;;;;17.35;10.85;;;;;;;;;;5018673;28;20025;-80
2022/03/08 03:02:45;;;;;;;20.10;10.82;;;;;;;;;;5014574;28;20030;-80
2022/03/08 03:05:11;;;;;;;18.35;10.02;;;;;;;;;;4998771;28;20034;-82
2022/03/08 03:07:37;;;;;;;24.52;11.13;;;;;;;;;;5005325;28;20482;-81
2022/03/08 03:10:07;;;;;;;17.58;10.02;;;;;;;;;;5021114;28;20428;-82
2022/03/08 03:12:33;;;;;;;14.65;8.45;;;;;;;;;;5017600;28;20033;-81
2022/03/08 03:15:00;;;;;;;22.35;9.88;;;;;;;;;;5016167;28;20034;-80
2022/03/08 03:17:26;;;;;;;17.48;9.25;;;;;;;;;;5016861;28;20030;-82
2022/03/08 03:19:52;;;;;;;17.80;10.55;;;;;;;;;;5016492;28;20029;-83
2022/03/08 03:22:18;;;;;;;19.83;9.68;;;;;;;;;;5017208;28;20030;-82
2022/03/08 03:24:44;;;;;;;16.48;9.35;;;;;;;;;;5017776;28;20030;-83
2022/03/08 03:27:10;;;;;;;19.83;9.35;;;;;;;;;;5017907;28;20439;-81
2022/03/08 03:29:36;;;;;;;21.02;9.73;;;;;;;;;;5012472;28;20034;-82
2022/03/08 03:32:02;;;;;;;18.02;9.93;;;;;;;;;;4997739;28;20129;-83
2022/03/08 03:34:28;;;;;;;16.65;9.52;;;;;;;;;;4996762;28;20026;-81
2022/03/08 03:36:54;;;;;;;15.65;8.90;;;;;;;;;;4996102;28;20057;-81
2022/03/08 03:39:20;;;;;;;23.23;10.35;;;;;;;;;;4998617;28;20081;-80
2022/03/08 03:41:46;;;;;;;16.00;9.27;;;;;;;;;;4997736;28;20114;-82
2022/03/08 03:44:12;;;;;;;14.20;8.68;;;;;;;;;;5004258;28;20037;-83
2022/03/08 03:46:38;;;;;;;16.38;9.57;;;;;;;;;;5015467;28;20444;-83
2022/03/08 03:49:04;;;;;;;16.00;8.95;;;;;;;;;;5014982;28;20148;-82
2022/03/08 03:51:30;;;;;;;16.08;8.68;;;;;;;;;;5015454;28;20022;-82
2022/03/08 03:53:55;;;;;;;17.98;8.93;;;;;;;;;;5015762;28;20061;-82
2022/03/08 03:56:21;;;;;;;14.95;9.02;;;;;;;;;;5014076;28;20437;-81
2022/03/08 03:58:47;;;;;;;15.38;8.75;;;;;;;;;;5015981;28;20026;-82
2022/03/08 04:01:14;;;;;;;15.85;9.27;;;;;;;;;;5014405;28;20124;-81
2022/03/08 04:03:40;;;;;;;21.33;9.93;;;;;;;;;;5014828;28;20044;-82
2022/03/08 04:06:07;;;;;;;18.33;9.65;;;;;;;;;;5014258;28;20504;-82
2022/03/08 04:08:33;;;;;;;15.15;8.45;;;;;;;;;;5013914;28;20018;-82
2022/03/08 04:10:59;;;;;;;14.50;8.93;;;;;;;;;;5013643;28;20107;-81
2022/03/08 04:13:25;;;;;;;12.77;7.93;;;;;;;;;;5015430;28;20040;-81
2022/03/08 04:15:52;;;;;;;18.67;9.35;;;;;;;;;;5011010;28;20019;-82
2022/03/08 04:18:18;;;;;;;19.67;8.85;;;;;;;;;;5012462;28;20456;-82
2022/03/08 04:20:45;;;;;;;18.20;8.93;;;;;;;;;;5015015;28;20076;-82
2022/03/08 04:23:11;;;;;;;14.43;8.68;;;;;;;;;;5015000;28;20026;-82
2022/03/08 04:25:37;;;;;;;19.77;9.48;;;;;;;;;;5014996;28;20484;-82
2022/03/08 04:28:04;;;;;;;16.58;8.90;;;;;;;;;;5013704;28;20071;-83
2022/03/08 04:30:30;;;;;;;19.17;8.93;;;;;;;;;;5014775;28;20101;-82
2022/03/08 04:32:56;;;;;;;16.58;8.73;;;;;;;;;;5015260;28;20552;-83
2022/03/08 04:35:22;;;;;;;14.13;8.15;;;;;;;;;;5013856;28;20443;-83
2022/03/08 04:37:48;;;;;;;15.55;8.98;;;;;;;;;;5013197;28;20025;-83
2022/03/08 04:40:15;;;;;;;14.75;9.02;;;;;;;;;;5013893;28;20026;-83
2022/03/08 04:42:41;;;;;;;15.25;8.68;;;;;;;;;;5020359;28;20025;-83
2022/03/08 04:45:32;;;;;;;15.23;8.82;;;;;;;;;;5036198;28;20036;-82
2022/03/08 04:47:54;;;;;;;13.30;8.25;;;;;;;;;;5023527;28;20034;-81
2022/03/08 04:50:20;;;;;;;15.80;8.48;;;;;;;;;;5016451;28;20033;-83
2022/03/08 04:52:49;;;;;;;15.77;8.18;;;;;;;;;;5013582;28;20441;-83
2022/03/08 04:55:21;;;;;;;13.95;8.13;;;;;;;;;;5013181;28;20038;-83
2022/03/08 04:58:03;;;;;;;16.17;8.25;;;;;;;;;;5012451;28;20338;-82
2022/03/08 05:00:29;;;;;;;16.63;8.10;;;;;;;;;;5011525;28;20022;-83
2022/03/08 05:02:55;;;;;;;18.95;8.43;;;;;;;;;;5013677;28;20030;-83
2022/03/08 05:05:38;;;;;;;12.48;7.85;;;;;;;;;;5020703;28;20104;-83
2022/03/08 05:08:04;;;;;;;18.23;8.35;;;;;;;;;;5011015;28;20017;-82
2022/03/08 05:10:30;;;;;;;15.30;8.60;;;;;;;;;;5010293;28;20038;-82
2022/03/08 05:12:56;;;;;;;18.10;8.30;;;;;;;;;;5010833;28;20030;-83
2022/03/08 05:15:22;;;;;;;17.30;9.30;;;;;;;;;;5012723;28;20053;-82
2022/03/08 05:17:48;;;;;;;14.40;7.60;;;;;;;;;;5011665;28;20036;-82
2022/03/08 05:20:14;;;;;;;16.77;8.38;;;;;;;;;;5010830;28;20034;-81
2022/03/08 05:22:40;;;;;;;15.15;8.32;;;;;;;;;;5012507;28;20064;-82
2022/03/08 05:25:06;;;;;;;15.45;8.32;;;;;;;;;;5012665;28;20068;-81
2022/03/08 05:27:34;;;;;;;14.75;7.55;;;;;;;;;;5011028;28;20076;-80
2022/03/08 05:30:00;;;;;;;14.18;7.50;;;;;;;;;;5013577;28;20030;-82
2022/03/08 05:32:26;;;;;;;14.23;7.53;;;;;;;;;;5011737;28;20040;-82
2022/03/08 05:34:52;;;;;;;13.82;7.47;;;;;;;;;;5012812;28;20044;-81
2022/03/08 05:37:17;;;;;;;14.70;8.20;;;;;;;;;;5012375;28;20032;-84
2022/03/08 05:39:44;;;;;;;15.02;7.85;;;;;;;;;;5013008;28;20430;-82
2022/03/08 05:42:10;;;;;;;13.55;7.50;;;;;;;;;;5012515;28;20077;-81
2022/03/08 05:44:36;;;;;;;14.25;7.30;;;;;;;;;;5013941;28;20050;-83
2022/03/08 05:47:03;;;;;;;13.73;7.75;;;;;;;;;;5012403;28;20025;-82
2022/03/08 05:49:29;;;;;;;14.27;7.13;;;;;;;;;;5030139;28;20562;-84
2022/03/08 05:51:55;;;;;;;12.15;7.60;;;;;;;;;;5033193;28;20033;-83
2022/03/08 05:54:21;;;;;;;16.35;7.10;;;;;;;;;;5030972;28;20025;-80
2022/03/08 05:56:47;;;;;;;11.80;7.30;;;;;;;;;;5033001;28;20025;-81
2022/03/08 05:59:13;;;;;;;18.73;8.10;;;;;;;;;;5033542;28;20068;-81
2022/03/08 06:01:39;;;;;;;12.30;6.93;;;;;;;;;;5033348;28;20025;-82
2022/03/08 06:04:06;;;;;;;9.80;6.43;;;;;;;;;;5012752;28;20034;-83
2022/03/08 06:06:32;;;;;;;12.77;7.10;;;;;;;;;;5003779;28;20030;-82
2022/03/08 06:08:58;;;;;;;14.48;7.55;;;;;;;;;;5014568;28;20549;-84
2022/03/08 06:11:24;;;;;;;11.60;7.05;;;;;;;;;;5013529;28;20117;-84
2022/03/08 06:13:50;;;;;;;17.30;7.00;;;;;;;;;;5014948;28;20462;-82
2022/03/08 06:16:16;;;;;;;13.20;7.22;;;;;;;;;;5017183;28;20034;-85
2022/03/08 06:18:42;;;;;;;18.92;7.03;;;;;;;;;;5012835;28;20041;-85
2022/03/08 06:21:08;;;;;;;10.18;6.53;;;;;;;;;;5010456;28;20034;-82
2022/03/08 06:23:34;;;;;;;12.80;7.03;;;;;;;;;;5010970;28;20089;-82
2022/03/08 06:26:00;;;;;;;12.25;6.90;;;;;;;;;;5011045;28;20022;-80
2022/03/08 06:28:26;;;;;;;12.25;6.78;;;;;;;;;;5012928;28;20401;-83
2022/03/08 06:30:52;;;;;;;14.60;7.20;;;;;;;;;;5013302;28;20029;-82
2022/03/08 06:33:18;;;;;;;12.73;7.38;;;;;;;;;;5013600;28;20021;-82
2022/03/08 06:35:44;;;;;;;14.57;7.72;;;;;;;;;;5013662;28;20098;-82
2022/03/08 06:38:17;;;;;;;10.68;6.75;;;;;;;;;;5013914;28;20044;-83
2022/03/08 06:40:43;;;;;;;11.07;6.97;;;;;;;;;;5014111;28;20431;-83
2022/03/08 06:43:09;;;;;;;12.13;6.47;;;;;;;;;;5015537;28;20041;-87
2022/03/08 06:45:36;;;;;;;14.02;7.75;;;;;;;;;;5014232;28;20033;-82
2022/03/08 06:48:01;;;;;;;10.35;6.40;;;;;;;;;;5015476;28;20129;-82
2022/03/08 06:50:27;;;;;;;11.48;7.07;;;;;;;;;;5014339;28;20073;-85
2022/03/08 06:52:53;;;;;;;12.70;6.57;;;;;;;;;;5016776;28;20453;-82
2022/03/08 06:55:19;;;;;;;10.23;6.38;;;;;;;;;;5035757;28;20026;-87
2022/03/08 06:57:45;;;;;;;13.15;6.30;;;;;;;;;;5026501;28;20034;-84
2022/03/08 07:00:12;;;;;;;13.35;7.20;;;;;;;;;;5014957;28;20024;-83
2022/03/08 07:02:38;;;;;;;11.23;6.85;;;;;;;;;;5012393;28;20035;-84
2022/03/08 07:05:04;;;;;;;12.90;6.95;;;;;;;;;;4995191;28;20034;-82
2022/03/08 07:07:30;;;;;;;11.63;6.75;;;;;;;;;;4998674;28;20054;-82
2022/03/08 07:09:56;;;;;;;14.90;7.18;;;;;;;;;;4997540;28;20022;-80
2022/03/08 07:12:22;;;;;;;10.55;7.22;;;;;;;;;;5013183;28;20046;-83
2022/03/08 07:14:48;;;;;;;10.63;6.68;;;;;;;;;;4998700;28;20034;-83
2022/03/08 07:17:14;;;;;;;11.57;7.03;;;;;;;;;;5014507;28;20026;-84
2022/03/08 07:19:40;;;;;;;9.48;6.18;;;;;;;;;;4997820;28;20129;-83
2022/03/08 07:22:06;;;;;;;11.73;6.47;;;;;;;;;;4999069;28;20086;-83
2022/03/08 07:24:32;;;;;;;11.73;7.10;;;;;;;;;;5028778;28;20130;-83
2022/03/08 07:26:59;;;;;;;10.38;6.47;;;;;;;;;;4997619;28;20486;-82
2022/03/08 07:29:25;;;;;;;14.30;6.65;;;;;;;;;;4997867;28;20026;-83
2022/03/08 07:31:51;;;;;;;13.98;6.93;;;;;;;;;;5001686;28;20018;-83
2022/03/08 07:34:17;;;;;;;11.60;6.72;;;;;;;;;;5016973;28;20026;-81
2022/03/08 07:36:43;;;;;;;11.45;6.72;;;;;;;;;;5015549;28;20105;-83
2022/03/08 07:39:09;;;;;;;10.23;6.53;;;;;;;;;;5016157;28;20061;-83
2022/03/08 07:41:38;;;;;;;13.68;6.18;;;;;;;;;;5014724;28;20018;-83
2022/03/08 07:44:04;;;;;;;9.65;6.63;;;;;;;;;;5016068;28;20025;-83
2022/03/08 07:46:30;;;;;;;10.38;6.10;;;;;;;;;;5010850;28;20084;-83
2022/03/08 07:48:56;;;;;;;8.95;6.05;;;;;;;;;;4996694;28;20014;-84
2022/03/08 07:51:22;;;;;;;9.23;5.88;;;;;;;;;;5004898;28;20100;-84
2022/03/08 07:53:48;;;;;;;11.27;5.55;;;;;;;;;;5015601;28;20034;-85
2022/03/08 07:56:14;;;;;;;9.43;6.72;;;;;;;;;;5016096;28;20073;-84
2022/03/08 07:58:41;;;;;;;9.38;5.97;;;;;;;;;;5016464;28;20025;-84
2022/03/08 08:01:07;;;;;;;9.38;6.22;;;;;;;;;;5015124;28;20036;-83
2022/03/08 08:03:33;;;;;;;10.27;6.13;;;;;;;;;;5016104;28;20056;-84
2022/03/08 08:06:02;;;;;;;9.25;6.60;;;;;;;;;;5015213;28;20493;-82
2022/03/08 08:08:28;;;;;;;16.42;6.07;;;;;;;;;;5013276;28;20026;-84
2022/03/08 08:10:54;;;;;;;8.35;5.68;;;;;;;;;;5013000;28;20034;-84
2022/03/08 08:13:20;;;;;;;13.45;6.45;;;;;;;;;;5019218;28;20331;-83
2022/03/08 08:15:46;;;;;;;9.20;5.68;;;;;;;;;;5023948;28;20049;-83
2022/03/08 08:18:12;;;;;;;10.60;6.97;;;;;;;;;;5028693;28;20373;-84
2022/03/08 08:20:39;;;;;;;8.82;6.63;;;;;;;;;;5027552;28;20040;-83
2022/03/08 08:23:05;;;;;;;11.32;6.78;;;;;;;;;;5029454;28;20081;-83
2022/03/08 08:25:31;;;;;;;10.75;6.50;;;;;;;;;;5026881;28;20450;-80
2022/03/08 08:27:57;;;;;;;12.93;6.90;;;;;;;;;;5024817;28;20034;-81
2022/03/08 08:30:23;;;;;;;10.60;6.57;;;;;;;;;;5023665;28;20103;-81
2022/03/08 08:32:50;;;;;;;10.05;6.22;;;;;;;;;;5005107;28;20023;-83
2022/03/08 08:35:17;;;;;;;16.40;6.25;;;;;;;;;;5012788;28;20081;-82
2022/03/08 08:37:43;;;;;;;10.52;6.50;;;;;;;;;;5014925;28;20547;-80
2022/03/08 08:40:09;;;;;;;9.35;6.18;;;;;;;;;;5015037;28;20025;-81
2022/03/08 08:42:35;;;;;;;9.15;5.93;;;;;;;;;;5016306;28;20121;-81
2022/03/08 08:45:01;;;;;;;8.95;5.82;;;;;;;;;;5019827;28;20064;-81
2022/03/08 08:47:27;;;;;;;11.82;6.00;;;;;;;;;;5022512;28;20033;-83
2022/03/08 08:49:53;;;;;;;7.60;4.97;;;;;;;;;;5016392;28;20018;-82
2022/03/08 08:52:19;;;;;;;9.15;6.03;;;;;;;;;;5014121;28;20454;-82
2022/03/08 08:54:47;;;;;;;9.13;6.13;;;;;;;;;;5028817;28;20114;-82
2022/03/08 08:57:13;;;;;;;7.57;5.28;;;;;;;;;;5015229;28;20425;-83
2022/03/08 08:59:39;;;;;;;11.18;5.78;;;;;;;;;;5014789;28;20327;-80
2022/03/08 09:02:05;;;;;;;8.27;5.43;;;;;;;;;;5013861;28;20060;-82
2022/03/08 09:04:33;;;;;;;11.85;5.88;;;;;;;;;;5012474;28;20040;-83
2022/03/08 09:06:59;;;;;;;9.20;5.50;;;;;;;;;;5013805;28;20052;-82
2022/03/08 09:09:26;;;;;;;9.45;5.50;;;;;;;;;;5016805;28;20033;-80
2022/03/08 09:11:52;;;;;;;7.70;5.20;;;;;;;;;;5034524;28;20053;-86
2022/03/08 09:14:18;;;;;;;9.07;5.50;;;;;;;;;;5016040;28;20030;-84
2022/03/08 09:16:44;;;;;;;9.40;5.40;;;;;;;;;;5015245;28;20473;-83
2022/03/08 09:19:10;;;;;;;8.68;5.80;;;;;;;;;;5015305;28;20026;-81
2022/03/08 09:21:37;;;;;;;8.55;5.53;;;;;;;;;;5016321;28;20038;-84
2022/03/08 09:24:04;;;;;;;7.13;5.28;;;;;;;;;;5016033;28;20433;-83
2022/03/08 09:26:30;;;;;;;9.48;5.70;;;;;;;;;;5014907;28;20481;-84
2022/03/08 09:28:55;;;;;;;7.22;5.35;;;;;;;;;;5015055;28;20088;-84
2022/03/08 09:31:22;;;;;;;8.15;5.28;;;;;;;;;;5015498;28;20454;-85
2022/03/08 09:33:48;;;;;;;8.20;5.95;;;;;;;;;;5015221;28;20049;-82
2022/03/08 09:36:14;;;;;;;6.07;5.47;;;;;;;;;;5015237;28;20029;-80
2022/03/08 09:38:40;;;;;;;7.38;5.78;;;;;;;;;;5015348;28;20049;-84
2022/03/08 09:41:06;;;;;;;8.55;5.57;;;;;;;;;;5031798;28;20038;-84
2022/03/08 09:43:35;;;;;;;10.27;5.97;;;;;;;;;;5032619;28;20021;-82
2022/03/08 09:46:02;;;;;;;9.18;6.45;;;;;;;;;;5013688;28;20030;-82
2022/03/08 09:48:28;;;;;;;6.80;5.35;;;;;;;;;;5017495;28;20030;-81
2022/03/08 09:50:54;;;;;;;8.50;5.97;;;;;;;;;;5017503;28;20478;-82
2022/03/08 09:53:20;;;;;;;9.07;5.45;;;;;;;;;;5015990;28;20059;-84
2022/03/08 09:55:46;;;;;;;8.13;6.00;;;;;;;;;;5014641;28;20029;-84
2022/03/08 09:58:12;;;;;;;9.60;6.38;;;;;;;;;;5014729;28;20041;-84
2022/03/08 10:00:38;;;;;;;9.18;6.10;;;;;;;;;;5015552;28;20029;-86
2022/03/08 10:03:08;;;;;;;9.70;6.25;;;;;;;;;;5019818;28;20029;-85
2022/03/08 10:05:39;;;;;;;7.95;6.05;;;;;;;;;;5015344;28;20478;-85
2022/03/08 10:08:10;;;;;;;7.85;5.05;;;;;;;;;;5016372;28;20029;-83
2022/03/08 10:11:03;;;;;;;7.53;5.95;;;;;;;;;;5016871;28;20030;-83
2022/03/08 10:13:36;;;;;;;7.72;5.68;;;;;;;;;;5013953;28;20030;-85
2022/03/08 10:16:14;;;;;;;9.23;6.05;;;;;;;;;;5016153;28;20108;-84
2022/03/08 10:18:40;;;;;;;9.63;5.65;;;;;;;;;;5016778;28;20080;-84
2022/03/08 10:21:24;;;;;;;9.50;6.47;;;;;;;;;;5015743;28;20038;-85
2022/03/08 10:23:50;;;;;;;7.93;5.45;;;;;;;;;;5013897;28;20100;-85
2022/03/08 10:26:16;;;;;;;6.85;5.75;;;;;;;;;;5015506;28;20541;-83
2022/03/08 10:28:46;;;;;;;8.00;5.80;;;;;;;;;;5012204;28;20026;-85
2022/03/08 10:31:14;;;;;;;7.88;5.80;;;;;;;;;;5015286;28;20037;-84
2022/03/08 10:33:40;;;;;;;10.68;6.70;;;;;;;;;;5014292;28;20489;-84
2022/03/08 10:36:12;;;;;;;10.38;5.65;;;;;;;;;;5014127;28;20097;-85
2022/03/08 10:38:39;;;;;;;8.82;6.32;;;;;;;;;;5014326;28;20036;-85
2022/03/08 10:41:19;;;;;;;9.48;6.50;;;;;;;;;;5013272;28;20061;-85
2022/03/08 10:43:49;;;;;;;11.07;6.13;;;;;;;;;;5017566;28;20034;-83
2022/03/08 10:46:16;;;;;;;8.60;6.15;;;;;;;;;;5012680;28;20057;-87
2022/03/08 10:48:42;;;;;;;7.63;5.57;;;;;;;;;;5011851;28;20029;-84
2022/03/08 10:51:14;;;;;;;9.82;6.10;;;;;;;;;;5008266;28;20466;-84
2022/03/08 10:53:40;;;;;;;10.20;6.07;;;;;;;;;;5003887;28;20026;-84
2022/03/08 10:56:08;;;;;;;9.30;6.18;;;;;;;;;;5018571;28;20030;-84
2022/03/08 10:58:34;;;;;;;9.15;6.30;;;;;;;;;;5019869;28;20022;-84
2022/03/08 11:01:01;;;;;;;8.02;5.78;;;;;;;;;;5021825;28;20033;-86
2022/03/08 11:03:27;;;;;;;8.48;6.32;;;;;;;;;;5019452;28;20027;-84
2022/03/08 11:06:05;;;;;;;7.88;5.97;;;;;;;;;;5006715;28;20025;-82
2022/03/08 11:08:32;;;;;;;9.27;6.32;;;;;;;;;;5022314;28;20045;-85
2022/03/08 11:10:58;;;;;;;8.43;5.85;;;;;;;;;;5022826;28;20363;-86
2022/03/08 11:13:24;;;;;;;10.43;6.53;;;;;;;;;;5022623;28;20581;-86
2022/03/08 11:15:50;;;;;;;10.05;6.53;;;;;;;;;;5022785;28;20417;-85
2022/03/08 11:18:16;;;;;;;7.28;5.65;;;;;;;;;;5022347;28;20033;-85
2022/03/08 11:20:43;;;;;;;12.90;6.30;;;;;;;;;;5020714;28;20022;-83
2022/03/08 11:23:10;;;;;;;8.27;6.43;;;;;;;;;;5020681;28;20040;-82
2022/03/08 11:25:40;;;;;;;7.57;6.03;;;;;;;;;;5021198;28;20026;-81
2022/03/08 11:28:07;;;;;;;9.05;5.90;;;;;;;;;;5019157;28;20072;-83
2022/03/08 11:30:34;;;;;;;7.53;5.97;;;;;;;;;;5021378;28;20032;-85
2022/03/08 11:33:05;;;;;;;9.55;6.93;;;;;;;;;;5020113;28;20026;-84
2022/03/08 11:35:47;;;;;;;12.82;6.78;;;;;;;;;;5017361;28;20030;-83
2022/03/08 11:38:13;;;;;;;9.05;6.22;;;;;;;;;;5014735;28;20034;-84
2022/03/08 11:40:46;;;;;;;9.00;6.05;;;;;;;;;;5014591;28;20059;-83
2022/03/08 11:43:12;;;;;;;9.73;6.57;;;;;;;;;;5016250;28;20450;-84
2022/03/08 11:45:38;;;;;;;9.23;6.82;;;;;;;;;;5016897;28;20053;-79
2022/03/08 11:48:05;;;;;;;9.77;6.32;;;;;;;;;;5016956;28;20025;-84
2022/03/08 11:50:33;;;;;;;10.13;5.82;;;;;;;;;;5017182;28;20037;-84
2022/03/08 11:53:06;;;;;;;9.38;6.80;;;;;;;;;;5013877;28;20022;-83
2022/03/08 11:55:39;;;;;;;16.35;7.32;;;;;;;;;;5015103;28;20072;-84
2022/03/08 11:58:10;;;;;;;10.18;5.88;;;;;;;;;;5008581;28;20110;-84
2022/03/08 12:00:37;;;;;;;8.23;6.13;;;;;;;;;;4996774;28;20089;-83
2022/03/08 12:03:14;;;;;;;9.48;6.25;;;;;;;;;;4997241;28;20486;-85
2022/03/08 12:05:41;;;;;;;7.53;6.05;;;;;;;;;;5013704;28;20108;-83
2022/03/08 12:08:23;;;;;;;8.57;6.57;;;;;;;;;;5016907;28;20397;-82
2022/03/08 12:10:49;;;;;;;9.30;6.05;;;;;;;;;;5015987;28;20036;-83
2022/03/08 12:13:16;;;;;;;10.02;6.85;;;;;;;;;;5015839;28;20439;-83
2022/03/08 12:16:00;;;;;;;9.95;6.78;;;;;;;;;;5017143;28;20034;-84
2022/03/08 12:18:40;;;;;;;14.00;7.13;;;;;;;;;;5015316;28;20072;-83
2022/03/08 12:21:18;;;;;;;9.73;7.03;;;;;;;;;;5017233;28;20065;-84
2022/03/08 12:23:47;;;;;;;8.02;6.63;;;;;;;;;;5010980;28;20030;-83
2022/03/08 12:26:24;;;;;;;11.60;7.43;;;;;;;;;;5005556;28;20371;-82
2022/03/08 12:29:08;;;;;;;9.68;6.70;;;;;;;;;;5014545;28;20045;-83
2022/03/08 12:31:54;;;;;;;13.00;7.43;;;;;;;;;;5018081;28;20026;-81
2022/03/08 12:34:43;;;;;;;11.15;7.20;;;;;;;;;;5016562;28;20045;-83
2022/03/08 12:37:11;;;;;;;11.48;7.05;;;;;;;;;;5015550;28;20034;-85
2022/03/08 12:39:47;;;;;;;9.90;6.97;;;;;;;;;;5021739;28;20386;-85
2022/03/08 12:42:32;;;;;;;13.43;7.68;;;;;;;;;;5013712;28;20077;-86
2022/03/08 12:45:10;;;;;;;10.90;7.80;;;;;;;;;;5013396;28;20030;-85
2022/03/08 12:47:39;;;;;;;11.98;6.82;;;;;;;;;;5026245;28;20029;-86
2022/03/08 12:50:07;;;;;;;12.25;7.43;;;;;;;;;;5013489;28;20021;-86
2022/03/08 12:52:36;;;;;;;10.82;6.88;;;;;;;;;;5015369;28;20029;-81
2022/03/08 12:55:03;;;;;;;12.05;7.80;;;;;;;;;;5014150;28;20438;-83
2022/03/08 12:57:29;;;;;;;9.80;7.18;;;;;;;;;;5016035;28;20105;-80
2022/03/08 12:59:56;;;;;;;10.75;7.15;;;;;;;;;;5015197;28;20512;-83
2022/03/08 13:02:22;;;;;;;11.73;6.97;;;;;;;;;;5016378;28;20034;-83
2022/03/08 13:04:49;;;;;;;9.60;7.07;;;;;;;;;;5015700;28;20026;-81
2022/03/08 13:07:17;;;;;;;8.25;6.38;;;;;;;;;;5015874;28;20496;-85
2022/03/08 13:09:49;;;;;;;9.95;6.45;;;;;;;;;;5013961;28;20068;-85
2022/03/08 13:12:22;;;;;;;11.10;7.30;;;;;;;;;;5015024;28;20022;-82
2022/03/08 13:15:07;;;;;;;10.82;7.38;;;;;;;;;;5015423;28;20049;-84
2022/03/08 13:17:33;;;;;;;11.40;6.97;;;;;;;;;;5014782;28;20179;-82
2022/03/08 13:19:59;;;;;;;14.85;6.85;;;;;;;;;;5015495;28;20038;-82
2022/03/08 13:22:25;;;;;;;13.65;7.82;;;;;;;;;;5014773;28;20057;-84
2022/03/08 13:25:10;;;;;;;10.70;7.55;;;;;;;;;;5013914;28;20034;-84
2022/03/08 13:27:53;;;;;;;13.73;7.50;;;;;;;;;;5015836;28;20029;-83
2022/03/08 13:30:20;;;;;;;12.48;7.85;;;;;;;;;;5014784;28;20241;-83
2022/03/08 13:32:46;;;;;;;11.07;7.18;;;;;;;;;;5013919;28;20022;-84
2022/03/08 13:35:12;;;;;;;12.35;7.53;;;;;;;;;;5014157;28;20121;-83
2022/03/08 13:37:47;;;;;;;11.73;7.80;;;;;;;;;;5014907;28;20551;-83
2022/03/08 13:40:29;;;;;;;12.55;7.75;;;;;;;;;;5013123;28;20164;-84
2022/03/08 13:43:07;;;;;;;17.63;6.97;;;;;;;;;;5015199;28;20025;-84
2022/03/08 13:48:45;;;;;;;;;;;;;;;;;;;;;
2022/03/08 13:51:51;;;;;;;;;;;;;;;;;;;;;
2022/03/08 13:57:23;;;;;;;9.50;6.25;;;;;;;;;;5053815;28;20036;-84
2022/03/08 13:59:49;;;;;;;8.43;6.72;;;;;;;;;;5006771;28;20171;-84
2022/03/08 14:02:17;;;;;;;10.15;7.00;;;;;;;;;;5032501;28;20091;-85
2022/03/08 14:04:43;;;;;;;10.23;6.78;;;;;;;;;;5028144;28;20040;-85
2022/03/08 14:07:09;;;;;;;10.93;6.95;;;;;;;;;;5012680;28;20493;-83
2022/03/08 14:09:35;;;;;;;12.57;7.05;;;;;;;;;;5014160;28;20013;-84
2022/03/08 14:12:03;;;;;;;13.52;6.43;;;;;;;;;;5031330;28;20452;-84
2022/03/08 14:14:30;;;;;;;13.65;6.80;;;;;;;;;;5033699;28;20473;-84
2022/03/08 14:16:56;;;;;;;10.27;6.45;;;;;;;;;;5036834;28;20040;-84
2022/03/08 14:19:38;;;;;;;10.55;6.47;;;;;;;;;;5021644;28;20029;-85
2022/03/08 14:22:07;;;;;;;9.70;6.05;;;;;;;;;;5022800;28;20129;-83
2022/03/08 14:24:41;;;;;;;8.82;6.07;;;;;;;;;;5021352;28;20038;-80
2022/03/08 14:27:11;;;;;;;9.35;5.88;;;;;;;;;;5036214;28;20087;-83
2022/03/08 14:29:41;;;;;;;7.72;5.43;;;;;;;;;;5038520;28;20490;-87
2022/03/08 14:32:08;;;;;;;12.77;6.85;;;;;;;;;;5059326;28;20017;-87
2022/03/08 14:34:35;;;;;;;11.63;6.20;;;;;;;;;;5059085;28;20041;-87
2022/03/08 14:37:03;;;;;;;14.38;5.70;;;;;;;;;;5041704;28;20081;-85
2022/03/08 14:39:33;;;;;;;9.05;6.05;;;;;;;;;;5059468;28;20033;-85
2022/03/08 14:42:09;;;;;;;10.07;5.65;;;;;;;;;;5059624;28;20094;-86
2022/03/08 14:44:55;;;;;;;7.05;5.43;;;;;;;;;;5059930;28;20079;-83